Portada
METAR-TAF:

METAR-TAF

Aeroports :

Tanna, Vanuatu

latitud: 19-27-18S, longitud: 169-13-26E, altitud: 6 m

Observació

L'informe es va fer fa 30 minuts, a les 12:00 UTC
Vent 4 kt del Est
Temperatura 21°C
Humitat 100%
Pressió 1019 hPa
Visibilitat 10 km o més
Núvols disperses a una alçada de 2200 ft
Cel ennuvolat a una alçada de 30000 ft

METAR: NVVW 251200Z 10004KT 9999 SCT022 BKN300 21/21 Q1019

Hora: 23:30 (12:30 UTC)

Pronòstic

L'informe es va fer fa 2 hores i 30 minuts, a les 10:00 UTC
Pronòstic vàlid del 25 a les 12 UTC al 26 a les 12 UTC
Vent 2 kt amb direcció variable
Visibilitat 10 km o més
Escasses núvols a una alçada de 2000 ft

TAF: NVVW 251000Z 2512/2612 VRB02KT 9999 FEW020

Observacions i pronòstics meteorològics de més de 4000 aeroports (METAR i TAF).

Les estacions disponibles són els punts grocs i vermells al mapa.

Posi el ratolí al punt desitjat per veure el nom de l'estació.

Feu clic per veure les observacions i els pronòstics meteorològics.

Per canviar el mapa: feu clic els botons verds amb una creu de color negre per apropar; al botó verd amb un guió per allunyar la imatge; o en les fletxes verdes per a mapes adjacents.


METAR-TAF: